Costa Magica — IBQQ — position and weather

sailwx.info

Track history (hours):
 
Tides and Currents Weather Stations Pressure Air Temp Water Temp Dewpoint Dewpoint Depression Visibility Wind Speed Wind Dir Waves Ship Positions

Costa Magica

Last reported at 2018-Dec-07 13:04 UTC. Time now 2018-Dec-12 15:24 UTC.
Position N 26°16' W 021°44'.

Type: Ship. MMSI: 247113300.

Date/timePositionNaut miles runAvg speedWind from/ knotsBaromVisibWave heightAir tempDewpointWater temp
2018-Dec-07 13:04N 26°16' W 021°44'117.0
2018-Dec-07 13:00N 26°17' W 021°43'4517.9
2018-Dec-07 10:31N 26°30' W 020°56'218.0
2018-Dec-07 10:23N 26°31' W 020°53'18418.0
2018-Dec-07 00:10N 27°29' W 017°38'317.9
2018-Dec-07 00:00N 27°30' W 017°34'5618.8
2018-Dec-06 21:04N 27°55' W 016°38'418.6
2018-Dec-06 20:49N 27°57' W 016°33'618.8
2018-Dec-06 20:30N 27°59' W 016°27'1717.6
2018-Dec-06 19:32N 28°14' W 016°18'118.4
2018-Dec-06 19:29N 28°15' W 016°17'917.9
2018-Dec-06 19:00N 28°23' W 016°15'611.9
2018-Dec-06 18:31N 28°29' W 016°14'1 1.1
2018-Dec-06 18:00N 28°29' W 016°14'0 0.0
2018-Dec-06 17:30N 28°29' W 016°14'0 0.0
2018-Dec-06 17:00N 28°29' W 016°14'0 0.0
2018-Dec-06 16:30N 28°29' W 016°14'0 0.0
2018-Dec-06 16:00N 28°29' W 016°14'0 0.0
2018-Dec-06 15:30N 28°29' W 016°14'0 0.0
2018-Dec-06 15:00N 28°29' W 016°14'0 0.0
2018-Dec-06 14:30N 28°29' W 016°14'0 0.0
2018-Dec-06 14:00N 28°29' W 016°14'0 0.0
2018-Dec-06 13:30N 28°29' W 016°14'0 0.0
2018-Dec-06 13:00N 28°29' W 016°14'0 0.0
2018-Dec-06 12:30N 28°29' W 016°14'0 0.0
2018-Dec-06 12:00N 28°29' W 016°14'0 0.2
2018-Dec-06 11:30N 28°29' W 016°14'1 3.0
2018-Dec-06 11:00N 28°28' W 016°13'612.8
2018-Dec-06 10:31N 28°29' W 016°06'918.5
2018-Dec-06 10:00N 28°36' W 015°58'918.8
2018-Dec-06 09:30N 28°42' W 015°50'919.0
2018-Dec-06 09:01N 28°48' W 015°42'1019.0
2018-Dec-06 08:30N 28°55' W 015°34'1318.8
2018-Dec-06 07:47N 29°04' W 015°22'818.9
2018-Dec-06 07:21N 29°09' W 015°15'719.1
2018-Dec-06 07:00N 29°14' W 015°09'1219.1
2018-Dec-06 06:22N 29°22' W 014°59'818.9
2018-Dec-06 05:56N 29°27' W 014°52'4919.0
2018-Dec-06 03:23N 29°60' W 014°11'4318.6
2018-Dec-06 01:05N 30°29' W 013°34'518.5
2018-Dec-06 00:47N 30°32' W 013°30'1418.2
2018-Dec-06 00:01N 30°41' W 013°17'418.6
2018-Dec-05 23:49N 30°44' W 013°14'1217.9
2018-Dec-05 23:10N 30°51' W 013°04'818.0
2018-Dec-05 22:44N 30°57' W 012°57'2118.1
2018-Dec-05 21:35N 31°11' W 012°39'218.1
2018-Dec-05 21:28N 31°12' W 012°37'818.0
2018-Dec-05 21:00N 31°18' W 012°30'918.4
2018-Dec-05 20:31N 31°24' W 012°22'918.5
2018-Dec-05 20:01N 31°30' W 012°14'918.3
2018-Dec-05 19:30N 31°36' W 012°06'918.5
2018-Dec-05 19:00N 31°42' W 011°58'918.5
2018-Dec-05 18:30N 31°48' W 011°50'918.5
2018-Dec-05 18:01N 31°54' W 011°41'918.5
2018-Dec-05 17:30N 32°01' W 011°33'918.7
2018-Dec-05 17:00N 32°07' W 011°25'919.0
2018-Dec-05 16:30N 32°13' W 011°17'1019.0
2018-Dec-05 15:59N 32°20' W 011°08'1318.8
2018-Dec-05 15:16N 32°29' W 010°56'518.8
2018-Dec-05 15:00N 32°32' W 010°52'918.9
2018-Dec-05 14:31N 32°39' W 010°44'1218.8
2018-Dec-05 13:52N 32°47' W 010°33'1119.6
2018-Dec-05 13:18N 32°54' W 010°23'2219.7
2018-Dec-05 12:11N 33°09' W 010°04'419.6
2018-Dec-05 12:00N 33°11' W 010°00'1019.5
2018-Dec-05 11:31N 33°17' W 009°52'1019.4
2018-Dec-05 11:00N 33°24' W 009°43'1019.4
2018-Dec-05 10:30N 33°30' W 009°34'1019.6
2018-Dec-05 10:00N 33°37' W 009°26'1019.5
2018-Dec-05 09:30N 33°44' W 009°17'1019.4
2018-Dec-05 09:01N 33°50' W 009°08'1019.3
2018-Dec-05 08:30N 33°57' W 008°60'1019.4
2018-Dec-05 08:00N 34°03' W 008°51'1019.3
2018-Dec-05 07:30N 34°09' W 008°42'1019.1
2018-Dec-05 07:00N 34°16' W 008°34'1019.3
2018-Dec-05 06:30N 34°22' W 008°25'1019.2
2018-Dec-05 06:00N 34°29' W 008°16'1019.6
2018-Dec-05 05:31N 34°35' W 008°08'1019.7
2018-Dec-05 04:59N 34°42' W 007°58'1019.5
2018-Dec-05 04:28N 34°49' W 007°49'1219.4
2018-Dec-05 03:50N 34°57' W 007°38'1119.3
2018-Dec-05 03:14N 35°05' W 007°27'520.1
2018-Dec-05 02:59N 35°08' W 007°23'2019.7
2018-Dec-05 01:59N 35°21' W 007°05'2519.4
2018-Dec-05 00:42N 35°38' W 006°42'1419.2
2018-Dec-04 23:58N 35°47' W 006°29'919.2
2018-Dec-04 23:29N 35°54' W 006°21'3719.1
2018-Dec-04 21:34N 35°57' W 005°36'119.2
2018-Dec-04 21:31N 35°58' W 005°35'917.5
2018-Dec-04 21:01N 36°00' W 005°24'815.4
2018-Dec-04 20:31N 36°02' W 005°15'917.9
2018-Dec-04 20:00N 36°05' W 005°05'919.0
2018-Dec-04 19:30N 36°11' W 004°56'183 7.7
2018-Dec-03 19:50N 37°00' W 001°16'516.1
2018-Dec-03 19:30N 37°04' W 001°12'816.2
2018-Dec-03 19:00N 37°10' W 001°04'816.4
2018-Dec-03 18:30N 37°16' W 000°57'816.7
2018-Dec-03 18:01N 37°21' W 000°50'816.4
2018-Dec-03 17:30N 37°27' W 000°42'816.5
2018-Dec-03 17:00N 37°33' W 000°35'816.2
2018-Dec-03 16:30N 37°40' W 000°29'816.1
2018-Dec-03 16:00N 37°46' W 000°23'816.1
2018-Dec-03 15:30N 37°53' W 000°18'816.2
2018-Dec-03 15:00N 37°60' W 000°12'816.4
2018-Dec-03 14:30N 38°06' W 000°05'816.4
2018-Dec-03 14:00N 38°13' E 000°00'916.4
2018-Dec-03 13:28N 38°21' E 000°06'816.5
2018-Dec-03 12:59N 38°28' E 000°11'5117.7
2018-Dec-03 10:07N 39°09' E 000°50'25518.5
2018-Dec-02 20:17N 42°28' E 004°21'518.6
2018-Dec-02 20:00N 42°32' E 004°25'3918.6
2018-Dec-02 17:55N 43°02' E 004°58'918.3
2018-Dec-02 17:27N 43°09' E 005°05'817.9
2018-Dec-02 17:00N 43°15' E 005°12'713.9
2018-Dec-02 16:30N 43°21' E 005°18'1 0.1
2018-Dec-02 07:14N 43°21' E 005°20'0 1.2
2018-Dec-02 07:00N 43°21' E 005°20'3 6.7
2018-Dec-02 06:31N 43°19' E 005°16'612.5
2018-Dec-02 06:00N 43°14' E 005°10'814.0
2018-Dec-02 05:28N 43°08' E 005°16'5416.4
2018-Dec-02 02:09N 42°55' E 006°29'319.0
2018-Dec-02 02:00N 42°56' E 006°32'918.7
2018-Dec-02 01:30N 43°01' E 006°42'918.9
2018-Dec-02 01:00N 43°06' E 006°53'918.8
2018-Dec-02 00:30N 43°12' E 007°04'918.7
2018-Dec-02 00:00N 43°17' E 007°14'918.8
2018-Dec-01 23:30N 43°23' E 007°24'918.9
2018-Dec-01 23:00N 43°28' E 007°35'1019.0
2018-Dec-01 22:30N 43°34' E 007°46'918.8
2018-Dec-01 22:00N 43°39' E 007°56'918.7
2018-Dec-01 21:30N 43°46' E 008°06'918.8
2018-Dec-01 21:00N 43°53' E 008°13'919.0
2018-Dec-01 20:30N 44°01' E 008°21'1019.1
2018-Dec-01 20:00N 44°09' E 008°28'816.2
2018-Dec-01 19:30N 44°17' E 008°31'2 4.3
2018-Dec-01 19:00N 44°19' E 008°30'0 0.6
2018-Dec-01 18:30N 44°19' E 008°29'0 0.0
2018-Dec-01 18:00N 44°19' E 008°29'0 0.0
2018-Dec-01 17:30N 44°19' E 008°29'0 0.0
2018-Dec-01 17:00N 44°19' E 008°29'0 0.0
2018-Dec-01 16:30N 44°19' E 008°29'0 0.0
2018-Dec-01 16:00N 44°19' E 008°29'0 0.0
2018-Dec-01 15:30N 44°19' E 008°29'0 0.0
2018-Dec-01 15:00N 44°19' E 008°29'0 0.0
2018-Dec-01 14:30N 44°19' E 008°29'0 0.0
2018-Dec-01 14:00N 44°19' E 008°29'0 0.0
2018-Dec-01 13:30N 44°19' E 008°29'0 0.0
2018-Dec-01 13:00N 44°19' E 008°29'0 0.0
2018-Dec-01 12:30N 44°19' E 008°29'0 0.0
2018-Dec-01 12:00N 44°19' E 008°29'0 0.0
2018-Dec-01 11:30N 44°19' E 008°29'0 0.0
2018-Dec-01 11:00N 44°19' E 008°29'0 0.0
2018-Dec-01 10:30N 44°19' E 008°29'0 0.0
2018-Dec-01 10:00N 44°19' E 008°29'0 0.0
2018-Dec-01 09:30N 44°19' E 008°29'0 0.0
2018-Dec-01 09:00N 44°19' E 008°29'0 0.0
2018-Dec-01 08:30N 44°19' E 008°29'0 0.0
2018-Dec-01 08:00N 44°19' E 008°29'0 0.0
2018-Dec-01 07:30N 44°19' E 008°29'1 1.9
2018-Dec-01 07:00N 44°19' E 008°30'4 8.1
2018-Dec-01 06:30N 44°15' E 008°32'714.2
2018-Dec-01 06:00N 44°09' E 008°29'715.0
2018-Dec-01 05:30N 44°02' E 008°23'815.2
2018-Dec-01 05:00N 43°56' E 008°18'815.3
2018-Dec-01 04:31N 43°49' E 008°12'815.0
2018-Dec-01 04:00N 43°43' E 008°07'714.8
2018-Dec-01 03:30N 43°37' E 008°01'714.5
2018-Dec-01 03:01N 43°33' E 007°53'714.4
2018-Dec-01 02:30N 43°29' E 007°44'714.5
2018-Dec-01 02:01N 43°26' E 007°36'714.8
2018-Dec-01 01:30N 43°22' E 007°27'815.1
2018-Dec-01 01:00N 43°18' E 007°18'815.2
2018-Dec-01 00:31N 43°14' E 007°09'714.8
2018-Dec-01 00:01N 43°10' E 007°00'714.4
2018-Nov-30 23:30N 43°07' E 006°52'714.4
2018-Nov-30 23:00N 43°03' E 006°43'714.1
2018-Nov-30 22:29N 42°60' E 006°34'6213.8
2018-Nov-30 17:58N 43°11' E 005°11'714.5
2018-Nov-30 17:30N 43°18' E 005°14'5 0.5
2018-Nov-30 07:08N 43°21' E 005°20'0 0.7
2018-Nov-30 07:01N 43°21' E 005°20'4 8.6
2018-Nov-30 06:30N 43°19' E 005°14'611.7
2018-Nov-30 06:00N 43°14' E 005°09'713.3
2018-Nov-30 05:30N 43°09' E 005°03'15314.9
2018-Nov-29 19:14N 41°24' E 002°33'415.7
2018-Nov-29 19:01N 41°22' E 002°29'815.5
2018-Nov-29 18:31N 41°17' E 002°21'714.2
2018-Nov-29 18:00N 41°15' E 002°12'510.5
2018-Nov-29 17:30N 41°20' E 002°10'1 1.8
2018-Nov-29 16:59N 41°21' E 002°10'0 0.0
2018-Nov-29 16:29N 41°21' E 002°10'0 0.0
2018-Nov-29 15:59N 41°21' E 002°10'0 0.0
2018-Nov-29 15:29N 41°21' E 002°10'0 0.0
2018-Nov-29 14:59N 41°21' E 002°10'0 0.0
2018-Nov-29 14:29N 41°21' E 002°10'0 0.0
2018-Nov-29 13:59N 41°21' E 002°10'0 0.0
2018-Nov-29 13:26N 41°21' E 002°10'0 0.0
2018-Nov-29 12:59N 41°21' E 002°10'0 0.0
2018-Nov-29 12:29N 41°21' E 002°10'0 0.0
2018-Nov-29 11:59N 41°21' E 002°10'0 0.0
2018-Nov-29 11:29N 41°21' E 002°10'0 0.0
2018-Nov-29 10:59N 41°21' E 002°10'0 0.0
2018-Nov-29 10:29N 41°21' E 002°10'0 0.0
2018-Nov-29 09:59N 41°21' E 002°10'0 0.0
2018-Nov-29 09:29N 41°21' E 002°10'0 0.0
2018-Nov-29 08:59N 41°21' E 002°10'0 0.0
2018-Nov-29 08:29N 41°21' E 002°10'0 0.0
2018-Nov-29 07:59N 41°21' E 002°10'0 0.0
2018-Nov-29 07:30N 41°21' E 002°10'2 3.6
2018-Nov-29 07:00N 41°19' E 002°10'5 9.3
2018-Nov-29 06:30N 41°15' E 002°12'4 7.7
2018-Nov-29 06:00N 41°11' E 002°14'611.3
2018-Nov-29 05:30N 41°06' E 002°16'611.4
2018-Nov-29 04:58N 40°59' E 002°16'9910.6
2018-Nov-28 19:38N 39°21' E 002°13'212.7
2018-Nov-28 19:30N 39°21' E 002°15'612.5
2018-Nov-28 19:00N 39°22' E 002°23'612.2
2018-Nov-28 18:30N 39°23' E 002°31'612.3
2018-Nov-28 18:00N 39°28' E 002°36'510.8
2018-Nov-28 17:30N 39°33' E 002°39'1 2.0
2018-Nov-28 17:00N 39°33' E 002°38'0 0.0
2018-Nov-28 16:30N 39°33' E 002°38'0 0.0
2018-Nov-28 16:00N 39°33' E 002°38'0 0.0
2018-Nov-28 15:30N 39°33' E 002°38'0 0.0
2018-Nov-28 15:00N 39°33' E 002°38'0 0.0
2018-Nov-28 14:30N 39°33' E 002°38'0 0.0
2018-Nov-28 14:00N 39°33' E 002°38'0 0.0
2018-Nov-28 13:30N 39°33' E 002°38'0 0.0
2018-Nov-28 13:00N 39°33' E 002°38'0 0.0
2018-Nov-28 12:30N 39°33' E 002°38'0 0.0
2018-Nov-28 12:00N 39°33' E 002°38'0 0.0
2018-Nov-28 11:30N 39°33' E 002°38'0 0.0
2018-Nov-28 11:00N 39°33' E 002°38'0 0.0
2018-Nov-28 10:30N 39°33' E 002°38'0 0.0
2018-Nov-28 10:00N 39°33' E 002°38'0 2.1
2018-Nov-28 09:59N 39°33' E 002°38'0 0.1
2018-Nov-28 09:30N 39°33' E 002°38'0 0.0
2018-Nov-28 09:00N 39°33' E 002°38'0 0.0
2018-Nov-28 08:30N 39°33' E 002°38'0 0.0
2018-Nov-28 08:00N 39°33' E 002°38'0 0.0
2018-Nov-28 07:30N 39°33' E 002°38'0 0.4
2018-Nov-28 07:00N 39°33' E 002°38'2 3.3
2018-Nov-28 06:30N 39°31' E 002°38'714.4
2018-Nov-28 06:00N 39°26' E 002°33'511.0
2018-Nov-28 05:30N 39°25' E 002°26'713.1
2018-Nov-28 04:57N 39°30' E 002°19'2712.9
2018-Nov-28 02:52N 39°57' E 002°23'1015.3
2018-Nov-28 02:15N 40°06' E 002°26'415.3
2018-Nov-28 01:59N 40°10' E 002°28'815.5
2018-Nov-28 01:29N 40°17' E 002°31'815.6
2018-Nov-28 00:59N 40°25' E 002°34'815.3
2018-Nov-28 00:29N 40°32' E 002°37'915.3
2018-Nov-27 23:54N 40°40' E 002°41'15317.4
2018-Nov-27 15:05N 43°05' E 003°50'118.8
2018-Nov-27 15:00N 43°06' E 003°52'918.5
2018-Nov-27 14:30N 43°09' E 004°03'  
Track history (hours):
 
Tides and Currents Weather Stations Pressure Air Temp Water Temp Dewpoint Dewpoint Depression Visibility Wind Speed Wind Dir Waves Ship Positions

Costa Magica

Last reported at 2018-Dec-07 13:04 UTC. Time now 2018-Dec-12 15:24 UTC.
Position N 26°16' W 021°44'.

Type: Ship. MMSI: 247113300.

Date/timePositionNaut miles runAvg speedWind from/ knotsBaromVisibWave heightAir tempDewpointWater temp
2018-Dec-07 13:04N 26°16' W 021°44'117.0
2018-Dec-07 13:00N 26°17' W 021°43'4517.9
2018-Dec-07 10:31N 26°30' W 020°56'218.0
2018-Dec-07 10:23N 26°31' W 020°53'18418.0
2018-Dec-07 00:10N 27°29' W 017°38'317.9
2018-Dec-07 00:00N 27°30' W 017°34'5618.8
2018-Dec-06 21:04N 27°55' W 016°38'418.6
2018-Dec-06 20:49N 27°57' W 016°33'618.8
2018-Dec-06 20:30N 27°59' W 016°27'1717.6
2018-Dec-06 19:32N 28°14' W 016°18'118.4
2018-Dec-06 19:29N 28°15' W 016°17'917.9
2018-Dec-06 19:00N 28°23' W 016°15'611.9
2018-Dec-06 18:31N 28°29' W 016°14'1 1.1
2018-Dec-06 18:00N 28°29' W 016°14'0 0.0
2018-Dec-06 17:30N 28°29' W 016°14'0 0.0
2018-Dec-06 17:00N 28°29' W 016°14'0 0.0
2018-Dec-06 16:30N 28°29' W 016°14'0 0.0
2018-Dec-06 16:00N 28°29' W 016°14'0 0.0
2018-Dec-06 15:30N 28°29' W 016°14'0 0.0
2018-Dec-06 15:00N 28°29' W 016°14'0 0.0
2018-Dec-06 14:30N 28°29' W 016°14'0 0.0
2018-Dec-06 14:00N 28°29' W 016°14'0 0.0
2018-Dec-06 13:30N 28°29' W 016°14'0 0.0
2018-Dec-06 13:00N 28°29' W 016°14'0 0.0
2018-Dec-06 12:30N 28°29' W 016°14'0 0.0
2018-Dec-06 12:00N 28°29' W 016°14'0 0.2
2018-Dec-06 11:30N 28°29' W 016°14'1 3.0
2018-Dec-06 11:00N 28°28' W 016°13'612.8
2018-Dec-06 10:31N 28°29' W 016°06'918.5
2018-Dec-06 10:00N 28°36' W 015°58'918.8
2018-Dec-06 09:30N 28°42' W 015°50'919.0
2018-Dec-06 09:01N 28°48' W 015°42'1019.0
2018-Dec-06 08:30N 28°55' W 015°34'1318.8
2018-Dec-06 07:47N 29°04' W 015°22'818.9
2018-Dec-06 07:21N 29°09' W 015°15'719.1
2018-Dec-06 07:00N 29°14' W 015°09'1219.1
2018-Dec-06 06:22N 29°22' W 014°59'818.9
2018-Dec-06 05:56N 29°27' W 014°52'4919.0
2018-Dec-06 03:23N 29°60' W 014°11'4318.6
2018-Dec-06 01:05N 30°29' W 013°34'518.5
2018-Dec-06 00:47N 30°32' W 013°30'1418.2
2018-Dec-06 00:01N 30°41' W 013°17'418.6
2018-Dec-05 23:49N 30°44' W 013°14'1217.9
2018-Dec-05 23:10N 30°51' W 013°04'818.0
2018-Dec-05 22:44N 30°57' W 012°57'2118.1
2018-Dec-05 21:35N 31°11' W 012°39'218.1
2018-Dec-05 21:28N 31°12' W 012°37'818.0
2018-Dec-05 21:00N 31°18' W 012°30'918.4
2018-Dec-05 20:31N 31°24' W 012°22'918.5
2018-Dec-05 20:01N 31°30' W 012°14'918.3
2018-Dec-05 19:30N 31°36' W 012°06'918.5
2018-Dec-05 19:00N 31°42' W 011°58'918.5
2018-Dec-05 18:30N 31°48' W 011°50'918.5
2018-Dec-05 18:01N 31°54' W 011°41'918.5
2018-Dec-05 17:30N 32°01' W 011°33'918.7
2018-Dec-05 17:00N 32°07' W 011°25'919.0
2018-Dec-05 16:30N 32°13' W 011°17'1019.0
2018-Dec-05 15:59N 32°20' W 011°08'1318.8
2018-Dec-05 15:16N 32°29' W 010°56'518.8
2018-Dec-05 15:00N 32°32' W 010°52'918.9
2018-Dec-05 14:31N 32°39' W 010°44'1218.8
2018-Dec-05 13:52N 32°47' W 010°33'1119.6
2018-Dec-05 13:18N 32°54' W 010°23'2219.7
2018-Dec-05 12:11N 33°09' W 010°04'419.6
2018-Dec-05 12:00N 33°11' W 010°00'1019.5
2018-Dec-05 11:31N 33°17' W 009°52'1019.4
2018-Dec-05 11:00N 33°24' W 009°43'1019.4
2018-Dec-05 10:30N 33°30' W 009°34'1019.6
2018-Dec-05 10:00N 33°37' W 009°26'1019.5
2018-Dec-05 09:30N 33°44' W 009°17'1019.4
2018-Dec-05 09:01N 33°50' W 009°08'1019.3
2018-Dec-05 08:30N 33°57' W 008°60'1019.4
2018-Dec-05 08:00N 34°03' W 008°51'1019.3
2018-Dec-05 07:30N 34°09' W 008°42'1019.1
2018-Dec-05 07:00N 34°16' W 008°34'1019.3
2018-Dec-05 06:30N 34°22' W 008°25'1019.2
2018-Dec-05 06:00N 34°29' W 008°16'1019.6
2018-Dec-05 05:31N 34°35' W 008°08'1019.7
2018-Dec-05 04:59N 34°42' W 007°58'1019.5
2018-Dec-05 04:28N 34°49' W 007°49'1219.4
2018-Dec-05 03:50N 34°57' W 007°38'1119.3
2018-Dec-05 03:14N 35°05' W 007°27'520.1
2018-Dec-05 02:59N 35°08' W 007°23'2019.7
2018-Dec-05 01:59N 35°21' W 007°05'2519.4
2018-Dec-05 00:42N 35°38' W 006°42'1419.2
2018-Dec-04 23:58N 35°47' W 006°29'919.2
2018-Dec-04 23:29N 35°54' W 006°21'3719.1
2018-Dec-04 21:34N 35°57' W 005°36'119.2
2018-Dec-04 21:31N 35°58' W 005°35'917.5
2018-Dec-04 21:01N 36°00' W 005°24'815.4
2018-Dec-04 20:31N 36°02' W 005°15'917.9
2018-Dec-04 20:00N 36°05' W 005°05'919.0
2018-Dec-04 19:30N 36°11' W 004°56'183 7.7
2018-Dec-03 19:50N 37°00' W 001°16'516.1
2018-Dec-03 19:30N 37°04' W 001°12'816.2
2018-Dec-03 19:00N 37°10' W 001°04'816.4
2018-Dec-03 18:30N 37°16' W 000°57'816.7
2018-Dec-03 18:01N 37°21' W 000°50'816.4
2018-Dec-03 17:30N 37°27' W 000°42'816.5
2018-Dec-03 17:00N 37°33' W 000°35'816.2
2018-Dec-03 16:30N 37°40' W 000°29'816.1
2018-Dec-03 16:00N 37°46' W 000°23'816.1
2018-Dec-03 15:30N 37°53' W 000°18'816.2
2018-Dec-03 15:00N 37°60' W 000°12'816.4
2018-Dec-03 14:30N 38°06' W 000°05'816.4
2018-Dec-03 14:00N 38°13' E 000°00'916.4
2018-Dec-03 13:28N 38°21' E 000°06'816.5
2018-Dec-03 12:59N 38°28' E 000°11'5117.7
2018-Dec-03 10:07N 39°09' E 000°50'25518.5
2018-Dec-02 20:17N 42°28' E 004°21'518.6
2018-Dec-02 20:00N 42°32' E 004°25'3918.6
2018-Dec-02 17:55N 43°02' E 004°58'918.3
2018-Dec-02 17:27N 43°09' E 005°05'817.9
2018-Dec-02 17:00N 43°15' E 005°12'713.9
2018-Dec-02 16:30N 43°21' E 005°18'1 0.1
2018-Dec-02 07:14N 43°21' E 005°20'0 1.2
2018-Dec-02 07:00N 43°21' E 005°20'3 6.7
2018-Dec-02 06:31N 43°19' E 005°16'612.5
2018-Dec-02 06:00N 43°14' E 005°10'814.0
2018-Dec-02 05:28N 43°08' E 005°16'5416.4
2018-Dec-02 02:09N 42°55' E 006°29'319.0
2018-Dec-02 02:00N 42°56' E 006°32'918.7
2018-Dec-02 01:30N 43°01' E 006°42'918.9
2018-Dec-02 01:00N 43°06' E 006°53'918.8
2018-Dec-02 00:30N 43°12' E 007°04'918.7
2018-Dec-02 00:00N 43°17' E 007°14'918.8
2018-Dec-01 23:30N 43°23' E 007°24'918.9
2018-Dec-01 23:00N 43°28' E 007°35'1019.0
2018-Dec-01 22:30N 43°34' E 007°46'918.8
2018-Dec-01 22:00N 43°39' E 007°56'918.7
2018-Dec-01 21:30N 43°46' E 008°06'918.8
2018-Dec-01 21:00N 43°53' E 008°13'919.0
2018-Dec-01 20:30N 44°01' E 008°21'1019.1
2018-Dec-01 20:00N 44°09' E 008°28'816.2
2018-Dec-01 19:30N 44°17' E 008°31'2 4.3
2018-Dec-01 19:00N 44°19' E 008°30'0 0.6
2018-Dec-01 18:30N 44°19' E 008°29'0 0.0
2018-Dec-01 18:00N 44°19' E 008°29'0 0.0
2018-Dec-01 17:30N 44°19' E 008°29'0 0.0
2018-Dec-01 17:00N 44°19' E 008°29'0 0.0
2018-Dec-01 16:30N 44°19' E 008°29'0 0.0
2018-Dec-01 16:00N 44°19' E 008°29'0 0.0
2018-Dec-01 15:30N 44°19' E 008°29'0 0.0
2018-Dec-01 15:00N 44°19' E 008°29'0 0.0
2018-Dec-01 14:30N 44°19' E 008°29'0 0.0
2018-Dec-01 14:00N 44°19' E 008°29'0 0.0
2018-Dec-01 13:30N 44°19' E 008°29'0 0.0
2018-Dec-01 13:00N 44°19' E 008°29'0 0.0
2018-Dec-01 12:30N 44°19' E 008°29'0 0.0
2018-Dec-01 12:00N 44°19' E 008°29'0 0.0
2018-Dec-01 11:30N 44°19' E 008°29'0 0.0
2018-Dec-01 11:00N 44°19' E 008°29'0 0.0
2018-Dec-01 10:30N 44°19' E 008°29'0 0.0
2018-Dec-01 10:00N 44°19' E 008°29'0 0.0
2018-Dec-01 09:30N 44°19' E 008°29'0 0.0
2018-Dec-01 09:00N 44°19' E 008°29'0 0.0
2018-Dec-01 08:30N 44°19' E 008°29'0 0.0
2018-Dec-01 08:00N 44°19' E 008°29'0 0.0
2018-Dec-01 07:30N 44°19' E 008°29'1 1.9
2018-Dec-01 07:00N 44°19' E 008°30'4 8.1
2018-Dec-01 06:30N 44°15' E 008°32'714.2
2018-Dec-01 06:00N 44°09' E 008°29'715.0
2018-Dec-01 05:30N 44°02' E 008°23'815.2
2018-Dec-01 05:00N 43°56' E 008°18'815.3
2018-Dec-01 04:31N 43°49' E 008°12'815.0
2018-Dec-01 04:00N 43°43' E 008°07'714.8
2018-Dec-01 03:30N 43°37' E 008°01'714.5
2018-Dec-01 03:01N 43°33' E 007°53'714.4
2018-Dec-01 02:30N 43°29' E 007°44'714.5
2018-Dec-01 02:01N 43°26' E 007°36'714.8
2018-Dec-01 01:30N 43°22' E 007°27'815.1
2018-Dec-01 01:00N 43°18' E 007°18'815.2
2018-Dec-01 00:31N 43°14' E 007°09'714.8
2018-Dec-01 00:01N 43°10' E 007°00'714.4
2018-Nov-30 23:30N 43°07' E 006°52'714.4
2018-Nov-30 23:00N 43°03' E 006°43'714.1
2018-Nov-30 22:29N 42°60' E 006°34'6213.8
2018-Nov-30 17:58N 43°11' E 005°11'714.5
2018-Nov-30 17:30N 43°18' E 005°14'5 0.5
2018-Nov-30 07:08N 43°21' E 005°20'0 0.7
2018-Nov-30 07:01N 43°21' E 005°20'4 8.6
2018-Nov-30 06:30N 43°19' E 005°14'611.7
2018-Nov-30 06:00N 43°14' E 005°09'713.3
2018-Nov-30 05:30N 43°09' E 005°03'15314.9
2018-Nov-29 19:14N 41°24' E 002°33'415.7
2018-Nov-29 19:01N 41°22' E 002°29'815.5
2018-Nov-29 18:31N 41°17' E 002°21'714.2
2018-Nov-29 18:00N 41°15' E 002°12'510.5
2018-Nov-29 17:30N 41°20' E 002°10'1 1.8
2018-Nov-29 16:59N 41°21' E 002°10'0 0.0
2018-Nov-29 16:29N 41°21' E 002°10'0 0.0
2018-Nov-29 15:59N 41°21' E 002°10'0 0.0
2018-Nov-29 15:29N 41°21' E 002°10'0 0.0
2018-Nov-29 14:59N 41°21' E 002°10'0 0.0
2018-Nov-29 14:29N 41°21' E 002°10'0 0.0
2018-Nov-29 13:59N 41°21' E 002°10'0 0.0
2018-Nov-29 13:26N 41°21' E 002°10'0 0.0
2018-Nov-29 12:59N 41°21' E 002°10'0 0.0
2018-Nov-29 12:29N 41°21' E 002°10'0 0.0
2018-Nov-29 11:59N 41°21' E 002°10'0 0.0
2018-Nov-29 11:29N 41°21' E 002°10'0 0.0
2018-Nov-29 10:59N 41°21' E 002°10'0 0.0
2018-Nov-29 10:29N 41°21' E 002°10'0 0.0
2018-Nov-29 09:59N 41°21' E 002°10'0 0.0
2018-Nov-29 09:29N 41°21' E 002°10'0 0.0
2018-Nov-29 08:59N 41°21' E 002°10'0 0.0
2018-Nov-29 08:29N 41°21' E 002°10'0 0.0
2018-Nov-29 07:59N 41°21' E 002°10'0 0.0
2018-Nov-29 07:30N 41°21' E 002°10'2 3.6
2018-Nov-29 07:00N 41°19' E 002°10'5 9.3
2018-Nov-29 06:30N 41°15' E 002°12'4 7.7
2018-Nov-29 06:00N 41°11' E 002°14'611.3
2018-Nov-29 05:30N 41°06' E 002°16'611.4
2018-Nov-29 04:58N 40°59' E 002°16'9910.6
2018-Nov-28 19:38N 39°21' E 002°13'212.7
2018-Nov-28 19:30N 39°21' E 002°15'612.5
2018-Nov-28 19:00N 39°22' E 002°23'612.2
2018-Nov-28 18:30N 39°23' E 002°31'612.3
2018-Nov-28 18:00N 39°28' E 002°36'510.8
2018-Nov-28 17:30N 39°33' E 002°39'1 2.0
2018-Nov-28 17:00N 39°33' E 002°38'0 0.0
2018-Nov-28 16:30N 39°33' E 002°38'0 0.0
2018-Nov-28 16:00N 39°33' E 002°38'0 0.0
2018-Nov-28 15:30N 39°33' E 002°38'0 0.0
2018-Nov-28 15:00N 39°33' E 002°38'0 0.0
2018-Nov-28 14:30N 39°33' E 002°38'0 0.0
2018-Nov-28 14:00N 39°33' E 002°38'0 0.0
2018-Nov-28 13:30N 39°33' E 002°38'0 0.0
2018-Nov-28 13:00N 39°33' E 002°38'0 0.0
2018-Nov-28 12:30N 39°33' E 002°38'0 0.0
2018-Nov-28 12:00N 39°33' E 002°38'0 0.0
2018-Nov-28 11:30N 39°33' E 002°38'0 0.0
2018-Nov-28 11:00N 39°33' E 002°38'0 0.0
2018-Nov-28 10:30N 39°33' E 002°38'0 0.0
2018-Nov-28 10:00N 39°33' E 002°38'0 2.1
2018-Nov-28 09:59N 39°33' E 002°38'0 0.1
2018-Nov-28 09:30N 39°33' E 002°38'0 0.0
2018-Nov-28 09:00N 39°33' E 002°38'0 0.0
2018-Nov-28 08:30N 39°33' E 002°38'0 0.0
2018-Nov-28 08:00N 39°33' E 002°38'0 0.0
2018-Nov-28 07:30N 39°33' E 002°38'0 0.4
2018-Nov-28 07:00N 39°33' E 002°38'2 3.3
2018-Nov-28 06:30N 39°31' E 002°38'714.4
2018-Nov-28 06:00N 39°26' E 002°33'511.0
2018-Nov-28 05:30N 39°25' E 002°26'713.1
2018-Nov-28 04:57N 39°30' E 002°19'2712.9
2018-Nov-28 02:52N 39°57' E 002°23'1015.3
2018-Nov-28 02:15N 40°06' E 002°26'415.3
2018-Nov-28 01:59N 40°10' E 002°28'815.5
2018-Nov-28 01:29N 40°17' E 002°31'815.6
2018-Nov-28 00:59N 40°25' E 002°34'815.3
2018-Nov-28 00:29N 40°32' E 002°37'915.3
2018-Nov-27 23:54N 40°40' E 002°41'15317.4
2018-Nov-27 15:05N 43°05' E 003°50'118.8
2018-Nov-27 15:00N 43°06' E 003°52'918.5
2018-Nov-27 14:30N 43°09' E 004°03'  

Dump ship's entire track history